< < Back
Terminal Aerodrome Forecast


Current Version              Previous Versions:   1  2  3  4  5  6  7  8  9  

Terminal Aerodrome Forecast

711
FTUS44 KMOB 301749
TAFMOB
TAF
KMOB 301749Z 3018/3118 VRB05KT P6SM SCT040 SCT200
     FM302100 21006KT P6SM FEW250
     FM310200 00000KT P6SM SKC
     FM311500 32005KT P6SM SKC=



Latest METAR

789
SAUS80 KWBC 310400 CCA
MTRMOB
METAR KMOB 310356Z 00000KT 10SM FEW060 SCT120 SCT250 22/20 A3004 RMK AO2
SLP167 T02220200


USA.gov is the U.S. government's official web portal to all federal, state and local government web resources and services.